createdAt,value
2023-02-05T00:00:38.000Z,4701.0
2023-02-05T00:01:37.000Z,4704.0
2023-02-05T00:02:38.000Z,4907.0
2023-02-05T00:03:37.000Z,5043.0
2023-02-05T00:04:38.000Z,5182.0
2023-02-05T00:05:38.000Z,5031.0
2023-02-05T00:06:37.000Z,5079.0
2023-02-05T00:07:38.000Z,5253.0
2023-02-05T00:08:37.000Z,5364.0
2023-02-05T00:09:37.000Z,5758.0
2023-02-05T00:10:38.000Z,5956.0
2023-02-05T00:11:38.000Z,5792.0
2023-02-05T00:12:37.000Z,5582.0
2023-02-05T00:13:38.000Z,6192.0
2023-02-05T00:14:37.000Z,6142.0
2023-02-05T00:15:38.000Z,6160.0
2023-02-05T00:16:38.000Z,6527.0
2023-02-05T00:17:37.000Z,6631.0
2023-02-05T00:18:38.000Z,6971.0
2023-02-05T00:19:37.000Z,7026.0
2023-02-05T00:20:37.000Z,6685.0
2023-02-05T00:21:38.000Z,6354.0
2023-02-05T00:22:37.000Z,6244.0
2023-02-05T00:23:38.000Z,6073.0
2023-02-05T00:24:38.000Z,5996.0
2023-02-05T00:25:37.000Z,6050.0
2023-02-05T00:26:38.000Z,6398.0
2023-02-05T00:27:37.000Z,6332.0
2023-02-05T00:28:38.000Z,6471.0
2023-02-05T00:29:38.000Z,6531.0
2023-02-05T00:30:37.000Z,6416.0
2023-02-05T00:31:38.000Z,6005.0
2023-02-05T00:32:38.000Z,6387.0
2023-02-05T00:33:37.000Z,6053.0
2023-02-05T00:34:38.000Z,5921.0
2023-02-05T00:35:37.000Z,5793.0
2023-02-05T00:36:38.000Z,5501.0
2023-02-05T00:37:38.000Z,5318.0
2023-02-05T00:38:37.000Z,5171.0
2023-02-05T00:39:38.000Z,4720.0
2023-02-05T00:40:37.000Z,4492.0
2023-02-05T00:41:38.000Z,3881.0
2023-02-05T00:42:38.000Z,3083.0
2023-02-05T00:43:37.000Z,2773.0
2023-02-05T00:44:38.000Z,2731.0
2023-02-05T00:45:38.000Z,2850.0
2023-02-05T00:46:37.000Z,2742.0
2023-02-05T00:47:38.000Z,2767.0
2023-02-05T00:48:37.000Z,3000.0
2023-02-05T00:49:38.000Z,3097.0
2023-02-05T00:50:38.000Z,2749.0
2023-02-05T00:51:37.000Z,2789.0
2023-02-05T00:52:38.000Z,2767.0
2023-02-05T00:53:37.000Z,2737.0
2023-02-05T00:54:38.000Z,2766.0
2023-02-05T00:55:38.000Z,2747.0
2023-02-05T00:56:37.000Z,2665.0
2023-02-05T00:57:38.000Z,2738.0
2023-02-05T00:58:38.000Z,2834.0
2023-02-05T00:59:37.000Z,3031.0
2023-02-05T01:00:38.000Z,3233.0
2023-02-05T01:01:37.000Z,3587.0
2023-02-05T01:02:38.000Z,3758.0
2023-02-05T01:03:38.000Z,3797.0
2023-02-05T01:04:37.000Z,3387.0
2023-02-05T01:05:38.000Z,3123.0
2023-02-05T01:06:37.000Z,3246.0
2023-02-05T01:07:38.000Z,3521.0
2023-02-05T01:08:38.000Z,3820.0
2023-02-05T01:09:37.000Z,4282.0
2023-02-05T01:10:38.000Z,4279.0
2023-02-05T01:11:38.000Z,4384.0
2023-02-05T01:12:37.000Z,4515.0
2023-02-05T01:13:38.000Z,4981.0
2023-02-05T01:14:38.000Z,5210.0
2023-02-05T01:15:37.000Z,5667.0
2023-02-05T01:16:38.000Z,5969.0
2023-02-05T01:17:37.000Z,6251.0
2023-02-05T01:18:38.000Z,6730.0
2023-02-05T01:19:38.000Z,7387.0
2023-02-05T01:20:37.000Z,7871.0
2023-02-05T01:21:38.000Z,8018.0
2023-02-05T01:22:38.000Z,9133.0
2023-02-05T01:23:37.000Z,9173.0
2023-02-05T01:24:38.000Z,9323.0
2023-02-05T01:25:37.000Z,10885.0
2023-02-05T01:26:38.000Z,11250.0
2023-02-05T01:27:38.000Z,10272.0
2023-02-05T01:28:37.000Z,9835.0
2023-02-05T01:29:38.000Z,10027.0
2023-02-05T01:30:37.000Z,9427.0
2023-02-05T01:31:38.000Z,9358.0
2023-02-05T01:32:38.000Z,9986.0
2023-02-05T01:33:37.000Z,10069.0
2023-02-05T01:34:38.000Z,10346.0
2023-02-05T01:35:38.000Z,10922.0
2023-02-05T01:36:37.000Z,9766.0
2023-02-05T01:37:38.000Z,9000.0
2023-02-05T01:38:37.000Z,7082.0
2023-02-05T01:39:38.000Z,5503.0
2023-02-05T01:40:38.000Z,4797.0
2023-02-05T01:41:37.000Z,4539.0
2023-02-05T01:42:38.000Z,4460.0
2023-02-05T01:43:37.000Z,3957.0
2023-02-05T01:44:37.000Z,3754.0
2023-02-05T01:45:38.000Z,3574.0
2023-02-05T01:46:37.000Z,3456.0
2023-02-05T01:47:38.000Z,3474.0
2023-02-05T01:48:38.000Z,3613.0
2023-02-05T01:49:37.000Z,4071.0
2023-02-05T01:50:38.000Z,4456.0
2023-02-05T01:51:37.000Z,4624.0
2023-02-05T01:52:38.000Z,4751.0
2023-02-05T01:53:38.000Z,4865.0
2023-02-05T01:54:37.000Z,4738.0
2023-02-05T01:55:38.000Z,4713.0
2023-02-05T01:56:38.000Z,4859.0
2023-02-05T01:57:37.000Z,5280.0
2023-02-05T01:58:38.000Z,5464.0
2023-02-05T01:59:37.000Z,5469.0
2023-02-05T02:00:38.000Z,5554.0
2023-02-05T02:01:38.000Z,5712.0
2023-02-05T02:02:37.000Z,5510.0
2023-02-05T02:03:38.000Z,5378.0
2023-02-05T02:04:37.000Z,5336.0
2023-02-05T02:05:38.000Z,5002.0
2023-02-05T02:06:38.000Z,5093.0
2023-02-05T02:07:37.000Z,5231.0
2023-02-05T02:08:38.000Z,5217.0
2023-02-05T02:09:38.000Z,5213.0
2023-02-05T02:10:37.000Z,5444.0
2023-02-05T02:11:38.000Z,5545.0
2023-02-05T02:12:38.000Z,5816.0
2023-02-05T02:13:37.000Z,6004.0
2023-02-05T02:14:38.000Z,6008.0
2023-02-05T02:15:37.000Z,5978.0
2023-02-05T02:16:38.000Z,6022.0
2023-02-05T02:17:38.000Z,6049.0
2023-02-05T02:18:37.000Z,6109.0
2023-02-05T02:19:38.000Z,6311.0
2023-02-05T02:20:38.000Z,6189.0
2023-02-05T02:21:37.000Z,6503.0
2023-02-05T02:22:38.000Z,6866.0
2023-02-05T02:23:37.000Z,7345.0
2023-02-05T02:24:38.000Z,7240.0
2023-02-05T02:25:38.000Z,6448.0
2023-02-05T02:26:37.000Z,5737.0
2023-02-05T02:27:38.000Z,5325.0
2023-02-05T02:28:37.000Z,5304.0
2023-02-05T02:29:38.000Z,5226.0
2023-02-05T02:30:38.000Z,4957.0
2023-02-05T02:31:37.000Z,4934.0
2023-02-05T02:32:38.000Z,5180.0
2023-02-05T02:33:38.000Z,5562.0
2023-02-05T02:34:37.000Z,6012.0
2023-02-05T02:35:38.000Z,5543.0
2023-02-05T02:36:37.000Z,5825.0
2023-02-05T02:37:38.000Z,6384.0
2023-02-05T02:38:38.000Z,6895.0
2023-02-05T02:39:37.000Z,6966.0
2023-02-05T02:40:38.000Z,6544.0
2023-02-05T02:41:37.000Z,6116.0
2023-02-05T02:42:38.000Z,5786.0
2023-02-05T02:43:38.000Z,5244.0
2023-02-05T02:44:37.000Z,5063.0
2023-02-05T02:45:38.000Z,4981.0
2023-02-05T02:46:38.000Z,5157.0
2023-02-05T02:47:37.000Z,5123.0
2023-02-05T02:48:38.000Z,5134.0
2023-02-05T02:49:37.000Z,4896.0
2023-02-05T02:50:38.000Z,4794.0
2023-02-05T02:51:38.000Z,5158.0
2023-02-05T02:52:37.000Z,5206.0
2023-02-05T02:53:38.000Z,5412.0
2023-02-05T02:54:37.000Z,5620.0
2023-02-05T02:55:38.000Z,5759.0
2023-02-05T02:56:38.000Z,5877.0
2023-02-05T02:57:37.000Z,6045.0
2023-02-05T02:58:38.000Z,5426.0
2023-02-05T02:59:38.000Z,5166.0
2023-02-05T03:00:37.000Z,4705.0
2023-02-05T03:01:38.000Z,4770.0
2023-02-05T03:02:37.000Z,4829.0
2023-02-05T03:03:38.000Z,5086.0
2023-02-05T03:04:38.000Z,5422.0
2023-02-05T03:05:37.000Z,5848.0
2023-02-05T03:06:38.000Z,6091.0
2023-02-05T03:07:37.000Z,6417.0
2023-02-05T03:08:38.000Z,6131.0
2023-02-05T03:09:38.000Z,6366.0
2023-02-05T03:10:38.000Z,6915.0
2023-02-05T03:11:37.000Z,7681.0
2023-02-05T03:12:38.000Z,8650.0
2023-02-05T03:13:37.000Z,8839.0
2023-02-05T03:14:38.000Z,9146.0
2023-02-05T03:15:38.000Z,9276.0
2023-02-05T03:16:37.000Z,8909.0
2023-02-05T03:17:38.000Z,8057.0
2023-02-05T03:18:38.000Z,8214.0
2023-02-05T03:19:37.000Z,8061.0
2023-02-05T03:20:38.000Z,8368.0
2023-02-05T03:21:37.000Z,8200.0
2023-02-05T03:22:38.000Z,9050.0
2023-02-05T03:23:38.000Z,9714.0
2023-02-05T03:24:37.000Z,10413.0
2023-02-05T03:25:38.000Z,10410.0
2023-02-05T03:26:37.000Z,11144.0
2023-02-05T03:27:38.000Z,11648.0
2023-02-05T03:28:38.000Z,11412.0
2023-02-05T03:29:37.000Z,9222.0
2023-02-05T03:30:38.000Z,6837.0
2023-02-05T03:31:38.000Z,5928.0
2023-02-05T03:32:37.000Z,6507.0
2023-02-05T03:33:38.000Z,6027.0
2023-02-05T03:34:37.000Z,6109.0
2023-02-05T03:35:38.000Z,5019.0
2023-02-05T03:36:38.000Z,4356.0
2023-02-05T03:37:37.000Z,3713.0
2023-02-05T03:38:38.000Z,3529.0
2023-02-05T03:39:37.000Z,3495.0
2023-02-05T03:40:38.000Z,3845.0
2023-02-05T03:41:38.000Z,4047.0
2023-02-05T03:42:37.000Z,4447.0
2023-02-05T03:43:38.000Z,4729.0
2023-02-05T03:44:38.000Z,4909.0
2023-02-05T03:45:37.000Z,4523.0
2023-02-05T03:46:38.000Z,4388.0
2023-02-05T03:47:37.000Z,4490.0
2023-02-05T03:48:38.000Z,4227.0
2023-02-05T03:49:38.000Z,4039.0
2023-02-05T03:50:37.000Z,3918.0
2023-02-05T03:51:38.000Z,3900.0
2023-02-05T03:52:37.000Z,4135.0
2023-02-05T03:53:38.000Z,4462.0
2023-02-05T03:54:38.000Z,4692.0
2023-02-05T03:55:37.000Z,4662.0
2023-02-05T03:56:38.000Z,4142.0
2023-02-05T03:57:38.000Z,3594.0
2023-02-05T03:58:37.000Z,3244.0
2023-02-05T03:59:38.000Z,2929.0
2023-02-05T04:00:37.000Z,2504.0
2023-02-05T04:01:38.000Z,2146.0
2023-02-05T04:02:38.000Z,1954.0
2023-02-05T04:03:37.000Z,1917.0
2023-02-05T04:04:38.000Z,2060.0
2023-02-05T04:05:38.000Z,2452.0
2023-02-05T04:06:37.000Z,2630.0
2023-02-05T04:07:38.000Z,2751.0
2023-02-05T04:08:37.000Z,2848.0
2023-02-05T04:09:38.000Z,2869.0
2023-02-05T04:10:38.000Z,2904.0
2023-02-05T04:11:37.000Z,2845.0
2023-02-05T04:12:38.000Z,3026.0
2023-02-05T04:13:38.000Z,3108.0
2023-02-05T04:14:37.000Z,3202.0
2023-02-05T04:15:38.000Z,2821.0
2023-02-05T04:16:38.000Z,2443.0
2023-02-05T04:17:37.000Z,2426.0
2023-02-05T04:18:38.000Z,2432.0
2023-02-05T04:19:37.000Z,2774.0
2023-02-05T04:20:38.000Z,3163.0
2023-02-05T04:21:38.000Z,3402.0
2023-02-05T04:22:37.000Z,3754.0
2023-02-05T04:23:38.000Z,4126.0
2023-02-05T04:24:37.000Z,4491.0
2023-02-05T04:25:38.000Z,4143.0
2023-02-05T04:26:38.000Z,4416.0
2023-02-05T04:27:37.000Z,4904.0
2023-02-05T04:28:38.000Z,5456.0
2023-02-05T04:29:38.000Z,6074.0
2023-02-05T04:30:37.000Z,7029.0
2023-02-05T04:31:38.000Z,7458.0
2023-02-05T04:32:37.000Z,8123.0
2023-02-05T04:33:38.000Z,8619.0
2023-02-05T04:34:38.000Z,8946.0
2023-02-05T04:35:37.000Z,8027.0
2023-02-05T04:36:38.000Z,8810.0
2023-02-05T04:37:37.000Z,7379.0
2023-02-05T04:38:38.000Z,5892.0
2023-02-05T04:39:38.000Z,6068.0
2023-02-05T04:40:37.000Z,5961.0
2023-02-05T04:41:38.000Z,5859.0
2023-02-05T04:42:38.000Z,6132.0
2023-02-05T04:43:37.000Z,5460.0
2023-02-05T04:44:38.000Z,5732.0
2023-02-05T04:45:37.000Z,5671.0
2023-02-05T04:46:38.000Z,5872.0
2023-02-05T04:47:38.000Z,4743.0
2023-02-05T04:48:37.000Z,4114.0
2023-02-05T04:49:38.000Z,3080.0
2023-02-05T04:50:38.000Z,2794.0
2023-02-05T04:51:38.000Z,2491.0
2023-02-05T04:52:38.000Z,2485.0
2023-02-05T04:53:37.000Z,2653.0
2023-02-05T04:54:38.000Z,2619.0
2023-02-05T04:55:38.000Z,2603.0
2023-02-05T04:56:37.000Z,3053.0
2023-02-05T04:57:38.000Z,3703.0
2023-02-05T04:58:37.000Z,4222.0
2023-02-05T04:59:38.000Z,4677.0
2023-02-05T05:00:38.000Z,5120.0
2023-02-05T05:01:37.000Z,5307.0
2023-02-05T05:02:38.000Z,5385.0
2023-02-05T05:03:37.000Z,5735.0
2023-02-05T05:04:38.000Z,5940.0
2023-02-05T05:05:38.000Z,6022.0
2023-02-05T05:06:37.000Z,5984.0
2023-02-05T05:07:38.000Z,5929.0
2023-02-05T05:08:38.000Z,6269.0
2023-02-05T05:09:37.000Z,6839.0
2023-02-05T05:10:38.000Z,7153.0
2023-02-05T05:11:38.000Z,7346.0
2023-02-05T05:12:37.000Z,8194.0
2023-02-05T05:13:38.000Z,8190.0
2023-02-05T05:14:37.000Z,9524.0
2023-02-05T05:15:38.000Z,9693.0
2023-02-05T05:16:38.000Z,10380.0
2023-02-05T05:17:37.000Z,10456.0
2023-02-05T05:18:38.000Z,11280.0
2023-02-05T05:19:38.000Z,11968.0
2023-02-05T05:20:37.000Z,13496.0
2023-02-05T05:21:38.000Z,13058.0
2023-02-05T05:22:37.000Z,11209.0
2023-02-05T05:23:38.000Z,10567.0
2023-02-05T05:24:38.000Z,8602.0
2023-02-05T05:25:37.000Z,6569.0
2023-02-05T05:26:38.000Z,5584.0
2023-02-05T05:27:38.000Z,5013.0
2023-02-05T05:28:37.000Z,4687.0
2023-02-05T05:29:38.000Z,4095.0
2023-02-05T05:30:37.000Z,3382.0
2023-02-05T05:31:38.000Z,2976.0
2023-02-05T05:32:38.000Z,2633.0
2023-02-05T05:33:37.000Z,2894.0
2023-02-05T05:34:38.000Z,3282.0
2023-02-05T05:35:37.000Z,3715.0
2023-02-05T05:36:38.000Z,4256.0
2023-02-05T05:37:38.000Z,4708.0
2023-02-05T05:38:37.000Z,4923.0
2023-02-05T05:39:38.000Z,5169.0
2023-02-05T05:40:38.000Z,5203.0
2023-02-05T05:41:38.000Z,5139.0
2023-02-05T05:42:38.000Z,5215.0
2023-02-05T05:43:37.000Z,5200.0
2023-02-05T05:44:38.000Z,5322.0
2023-02-05T05:45:38.000Z,5163.0
2023-02-05T05:46:37.000Z,5129.0
2023-02-05T05:47:38.000Z,5293.0
2023-02-05T05:48:37.000Z,5329.0
2023-02-05T05:49:38.000Z,5357.0
2023-02-05T05:50:38.000Z,5346.0
2023-02-05T05:51:37.000Z,5728.0
2023-02-05T05:52:38.000Z,6385.0
2023-02-05T05:53:38.000Z,6338.0
2023-02-05T05:54:37.000Z,6124.0
2023-02-05T05:55:38.000Z,5722.0
2023-02-05T05:56:37.000Z,5361.0
2023-02-05T05:57:38.000Z,5724.0
2023-02-05T05:58:38.000Z,5313.0
2023-02-05T05:59:37.000Z,5113.0
2023-02-05T06:00:38.000Z,5101.0
2023-02-05T06:01:37.000Z,5840.0
2023-02-05T06:02:38.000Z,5699.0
2023-02-05T06:03:38.000Z,5779.0
2023-02-05T06:04:37.000Z,5275.0
2023-02-05T06:05:38.000Z,4835.0
2023-02-05T06:06:38.000Z,3451.0
2023-02-05T06:07:37.000Z,2675.0
2023-02-05T06:08:38.000Z,2315.0
2023-02-05T06:09:37.000Z,2084.0
2023-02-05T06:10:38.000Z,1922.0
2023-02-05T06:11:38.000Z,1836.0
2023-02-05T06:12:37.000Z,1936.0
2023-02-05T06:13:38.000Z,1956.0
2023-02-05T06:14:37.000Z,1750.0
2023-02-05T06:15:38.000Z,1745.0
2023-02-05T06:16:38.000Z,1939.0
2023-02-05T06:17:37.000Z,1896.0
2023-02-05T06:18:38.000Z,1570.0
2023-02-05T06:19:38.000Z,1629.0
2023-02-05T06:20:37.000Z,1830.0
2023-02-05T06:21:38.000Z,1858.0
2023-02-05T06:22:37.000Z,1939.0
2023-02-05T06:23:38.000Z,2016.0
2023-02-05T06:24:38.000Z,2013.0
2023-02-05T06:25:37.000Z,1996.0
2023-02-05T06:26:38.000Z,2091.0
2023-02-05T06:27:38.000Z,2393.0
2023-02-05T06:28:37.000Z,2275.0
2023-02-05T06:29:38.000Z,2180.0
2023-02-05T06:30:37.000Z,2358.0
2023-02-05T06:31:38.000Z,2515.0
2023-02-05T06:32:38.000Z,2780.0
2023-02-05T06:33:37.000Z,3179.0
2023-02-05T06:34:38.000Z,2962.0
2023-02-05T06:35:37.000Z,2763.0
2023-02-05T06:36:38.000Z,2709.0
2023-02-05T06:37:38.000Z,2584.0
2023-02-05T06:38:37.000Z,2508.0
2023-02-05T06:39:38.000Z,2628.0
2023-02-05T06:40:38.000Z,2673.0
2023-02-05T06:41:38.000Z,2540.0
2023-02-05T06:42:38.000Z,2123.0
2023-02-05T06:43:37.000Z,2032.0
2023-02-05T06:44:38.000Z,1976.0
2023-02-05T06:45:38.000Z,1648.0
2023-02-05T06:46:37.000Z,1235.0
2023-02-05T06:47:38.000Z,1144.0
2023-02-05T06:48:37.000Z,1145.0
2023-02-05T06:49:38.000Z,1234.0
2023-02-05T06:50:38.000Z,1420.0
2023-02-05T06:51:37.000Z,1399.0
2023-02-05T06:52:38.000Z,1425.0
2023-02-05T06:53:38.000Z,1512.0
2023-02-05T06:54:37.000Z,1588.0
2023-02-05T06:55:38.000Z,1722.0
2023-02-05T06:56:37.000Z,1803.0
2023-02-05T06:57:38.000Z,1867.0
2023-02-05T06:58:38.000Z,1847.0
2023-02-05T06:59:37.000Z,1834.0
2023-02-05T07:00:38.000Z,1811.0
2023-02-05T07:01:37.000Z,2024.0
2023-02-05T07:02:38.000Z,2233.0
2023-02-05T07:03:38.000Z,2518.0
2023-02-05T07:04:37.000Z,2691.0
2023-02-05T07:05:38.000Z,2804.0
2023-02-05T07:06:38.000Z,2822.0
2023-02-05T07:07:37.000Z,2894.0
2023-02-05T07:08:38.000Z,3107.0
2023-02-05T07:09:37.000Z,3209.0
2023-02-05T07:10:38.000Z,2994.0
2023-02-05T07:11:38.000Z,2793.0
2023-02-05T07:12:37.000Z,2615.0
2023-02-05T07:13:38.000Z,2270.0
2023-02-05T07:14:38.000Z,2092.0
2023-02-05T07:15:37.000Z,1977.0
2023-02-05T07:16:38.000Z,2036.0
2023-02-05T07:17:38.000Z,2066.0
2023-02-05T07:18:37.000Z,2121.0
2023-02-05T07:19:38.000Z,2090.0
2023-02-05T07:20:37.000Z,2103.0
2023-02-05T07:21:38.000Z,2251.0
2023-02-05T07:22:38.000Z,2353.0
2023-02-05T07:23:37.000Z,2574.0
2023-02-05T07:24:38.000Z,2528.0
2023-02-05T07:25:37.000Z,2588.0
2023-02-05T07:26:38.000Z,2811.0
2023-02-05T07:27:38.000Z,2868.0
2023-02-05T07:28:37.000Z,2850.0
2023-02-05T07:29:38.000Z,2802.0
2023-02-05T07:30:38.000Z,2753.0
2023-02-05T07:31:37.000Z,2722.0
2023-02-05T07:32:38.000Z,2791.0
2023-02-05T07:33:37.000Z,2698.0
2023-02-05T07:34:38.000Z,2765.0
2023-02-05T07:35:38.000Z,2937.0
2023-02-05T07:36:37.000Z,3197.0
2023-02-05T07:37:38.000Z,3586.0
2023-02-05T07:38:37.000Z,3510.0
2023-02-05T07:39:38.000Z,3285.0
2023-02-05T07:40:38.000Z,3165.0
2023-02-05T07:41:37.000Z,2875.0
2023-02-05T07:42:38.000Z,2666.0
2023-02-05T07:43:38.000Z,2447.0
2023-02-05T07:44:37.000Z,2305.0
2023-02-05T07:45:38.000Z,2215.0
2023-02-05T07:46:37.000Z,2262.0
2023-02-05T07:47:38.000Z,2473.0
2023-02-05T07:48:38.000Z,2592.0
2023-02-05T07:49:37.000Z,2796.0
2023-02-05T07:50:38.000Z,2949.0
2023-02-05T07:51:37.000Z,3039.0
2023-02-05T07:52:38.000Z,3229.0
2023-02-05T07:53:38.000Z,3241.0
2023-02-05T07:54:37.000Z,3169.0
2023-02-05T07:55:38.000Z,3187.0
2023-02-05T07:56:38.000Z,3158.0
2023-02-05T07:57:37.000Z,3212.0
2023-02-05T07:58:38.000Z,3225.0
2023-02-05T07:59:37.000Z,3145.0
2023-02-05T08:00:38.000Z,3100.0
2023-02-05T08:01:38.000Z,2926.0
2023-02-05T08:02:37.000Z,3042.0
2023-02-05T08:03:38.000Z,3041.0
2023-02-05T08:04:37.000Z,3012.0
2023-02-05T08:05:38.000Z,2832.0
2023-02-05T08:06:38.000Z,2635.0
2023-02-05T08:07:37.000Z,2854.0
2023-02-05T08:08:38.000Z,2862.0
2023-02-05T08:09:38.000Z,2944.0
2023-02-05T08:10:37.000Z,3153.0
2023-02-05T08:11:38.000Z,3223.0
2023-02-05T08:12:38.000Z,3418.0
2023-02-05T08:13:37.000Z,3342.0
2023-02-05T08:14:38.000Z,3276.0
2023-02-05T08:15:38.000Z,3129.0
2023-02-05T08:16:38.000Z,3196.0
2023-02-05T08:17:38.000Z,3082.0
2023-02-05T08:18:37.000Z,3140.0
2023-02-05T08:19:38.000Z,3039.0
2023-02-05T08:20:38.000Z,3193.0
2023-02-05T08:21:37.000Z,3227.0
2023-02-05T08:22:38.000Z,3153.0
2023-02-05T08:23:37.000Z,3165.0
2023-02-05T08:24:38.000Z,3139.0
2023-02-05T08:25:38.000Z,2946.0
2023-02-05T08:26:37.000Z,2800.0
2023-02-05T08:27:38.000Z,2847.0
2023-02-05T08:28:38.000Z,2809.0
2023-02-05T08:29:37.000Z,2910.0
2023-02-05T08:30:38.000Z,2490.0
2023-02-05T08:31:37.000Z,2425.0
2023-02-05T08:32:38.000Z,2261.0
2023-02-05T08:33:38.000Z,1995.0
2023-02-05T08:34:37.000Z,2143.0
2023-02-05T08:35:38.000Z,2113.0
2023-02-05T08:36:37.000Z,2436.0
2023-02-05T08:37:38.000Z,2370.0
2023-02-05T08:38:38.000Z,2446.0
2023-02-05T08:39:37.000Z,2581.0
2023-02-05T08:40:38.000Z,2569.0
2023-02-05T08:41:38.000Z,2564.0
2023-02-05T08:42:37.000Z,2650.0
2023-02-05T08:43:38.000Z,2719.0
2023-02-05T08:44:37.000Z,2893.0
2023-02-05T08:45:38.000Z,2924.0
2023-02-05T08:46:38.000Z,2941.0
2023-02-05T08:47:37.000Z,3119.0
2023-02-05T08:48:38.000Z,2953.0
2023-02-05T08:49:37.000Z,2755.0
2023-02-05T08:50:38.000Z,2731.0
2023-02-05T08:51:38.000Z,2721.0
2023-02-05T08:52:37.000Z,2685.0
2023-02-05T08:53:38.000Z,2881.0
2023-02-05T08:54:38.000Z,3169.0
2023-02-05T08:55:37.000Z,3348.0
2023-02-05T08:56:38.000Z,3402.0
2023-02-05T08:57:37.000Z,3506.0
2023-02-05T08:58:38.000Z,3413.0
2023-02-05T08:59:38.000Z,3396.0
2023-02-05T09:00:37.000Z,3466.0
2023-02-05T09:01:38.000Z,3360.0
2023-02-05T09:02:38.000Z,3105.0
2023-02-05T09:03:38.000Z,3170.0
2023-02-05T09:04:38.000Z,3009.0
2023-02-05T09:05:37.000Z,3000.0
2023-02-05T09:06:38.000Z,2940.0
2023-02-05T09:07:38.000Z,2928.0
2023-02-05T09:08:37.000Z,2772.0
2023-02-05T09:09:38.000Z,2477.0
2023-02-05T09:10:38.000Z,2398.0
2023-02-05T09:11:37.000Z,2360.0
2023-02-05T09:12:38.000Z,2393.0
2023-02-05T09:13:37.000Z,2552.0
2023-02-05T09:14:38.000Z,2740.0
2023-02-05T09:15:38.000Z,2816.0
2023-02-05T09:16:37.000Z,2913.0
2023-02-05T09:17:38.000Z,2934.0
2023-02-05T09:18:38.000Z,2884.0
2023-02-05T09:19:37.000Z,2994.0
2023-02-05T09:20:38.000Z,2895.0
2023-02-05T09:21:37.000Z,2916.0
2023-02-05T09:22:38.000Z,2860.0
2023-02-05T09:23:38.000Z,2877.0
2023-02-05T09:24:37.000Z,2829.0
2023-02-05T09:25:38.000Z,2837.0
2023-02-05T09:26:38.000Z,2798.0
2023-02-05T09:27:37.000Z,2684.0
2023-02-05T09:28:38.000Z,2746.0
2023-02-05T09:29:37.000Z,3038.0
2023-02-05T09:30:38.000Z,3006.0
2023-02-05T09:31:38.000Z,3065.0
2023-02-05T09:32:37.000Z,3120.0
2023-02-05T09:33:38.000Z,3236.0
2023-02-05T09:34:37.000Z,3230.0
2023-02-05T09:35:38.000Z,3237.0
2023-02-05T09:36:38.000Z,3198.0
2023-02-05T09:37:37.000Z,3125.0
2023-02-05T09:38:38.000Z,3056.0
2023-02-05T09:39:38.000Z,3064.0
2023-02-05T09:40:37.000Z,3067.0
2023-02-05T09:41:38.000Z,2973.0
2023-02-05T09:42:37.000Z,2965.0
2023-02-05T09:43:38.000Z,2915.0
2023-02-05T09:44:38.000Z,2950.0
2023-02-05T09:45:37.000Z,3047.0
2023-02-05T09:46:38.000Z,3238.0
2023-02-05T09:47:37.000Z,3370.0
2023-02-05T09:48:38.000Z,3467.0
2023-02-05T09:49:38.000Z,3412.0
2023-02-05T09:50:37.000Z,3321.0
2023-02-05T09:51:38.000Z,3237.0
2023-02-05T09:52:38.000Z,2896.0
2023-02-05T09:53:37.000Z,3008.0
2023-02-05T09:54:38.000Z,3098.0
2023-02-05T09:55:37.000Z,2407.0
2023-02-05T09:56:38.000Z,2105.0
2023-02-05T09:57:38.000Z,1685.0
2023-02-05T09:58:37.000Z,1307.0
2023-02-05T09:59:38.000Z,952.0
2023-02-05T10:00:37.000Z,964.0
2023-02-05T10:01:38.000Z,1053.0
2023-02-05T10:02:38.000Z,1029.0
2023-02-05T10:03:37.000Z,1176.0
2023-02-05T10:04:38.000Z,1220.0
2023-02-05T10:05:38.000Z,1120.0
2023-02-05T10:06:37.000Z,1490.0
2023-02-05T10:07:38.000Z,2023.0
2023-02-05T10:08:37.000Z,2475.0
2023-02-05T10:09:38.000Z,2727.0
2023-02-05T10:10:38.000Z,2954.0
2023-02-05T10:11:37.000Z,3129.0
2023-02-05T10:12:38.000Z,2988.0
2023-02-05T10:13:38.000Z,2664.0
2023-02-05T10:14:37.000Z,2439.0
2023-02-05T10:15:38.000Z,2437.0
2023-02-05T10:16:38.000Z,2193.0
2023-02-05T10:17:37.000Z,1159.0
2023-02-05T10:18:38.000Z,1099.0
2023-02-05T10:19:37.000Z,1464.0
2023-02-05T10:20:38.000Z,1933.0
2023-02-05T10:21:38.000Z,2241.0
2023-02-05T10:22:37.000Z,2558.0
2023-02-05T10:23:38.000Z,2870.0
2023-02-05T10:24:38.000Z,2846.0
2023-02-05T10:25:38.000Z,2974.0
2023-02-05T10:26:38.000Z,2317.0
2023-02-05T10:27:37.000Z,1557.0
2023-02-05T10:28:38.000Z,1538.0
2023-02-05T10:29:38.000Z,1942.0
2023-02-05T10:30:37.000Z,1800.0
2023-02-05T10:31:38.000Z,2284.0
2023-02-05T10:32:37.000Z,2633.0
2023-02-05T10:33:38.000Z,3079.0
2023-02-05T10:34:38.000Z,3206.0
2023-02-05T10:35:37.000Z,3221.0
2023-02-05T10:36:38.000Z,3594.0
2023-02-05T10:37:37.000Z,3708.0
2023-02-05T10:38:38.000Z,3741.0
2023-02-05T10:39:38.000Z,3907.0
2023-02-05T10:40:37.000Z,4089.0
2023-02-05T10:41:38.000Z,4393.0
2023-02-05T10:42:38.000Z,4556.0
2023-02-05T10:43:37.000Z,4743.0
2023-02-05T10:44:38.000Z,4817.0
2023-02-05T10:45:37.000Z,4650.0
2023-02-05T10:46:38.000Z,4353.0
2023-02-05T10:47:38.000Z,4507.0
2023-02-05T10:48:37.000Z,4959.0
2023-02-05T10:49:38.000Z,4992.0
2023-02-05T10:50:38.000Z,4898.0
2023-02-05T10:51:37.000Z,4736.0
2023-02-05T10:52:38.000Z,4848.0
2023-02-05T10:53:37.000Z,4726.0
2023-02-05T10:54:38.000Z,4799.0
2023-02-05T10:55:38.000Z,4740.0
2023-02-05T10:56:37.000Z,4735.0
2023-02-05T10:57:38.000Z,4707.0
2023-02-05T10:58:37.000Z,4606.0
2023-02-05T10:59:38.000Z,4613.0
2023-02-05T11:00:38.000Z,4800.0
2023-02-05T11:01:37.000Z,4389.0
2023-02-05T11:02:38.000Z,4321.0
2023-02-05T11:03:38.000Z,4330.0
2023-02-05T11:04:38.000Z,4073.0
2023-02-05T11:05:38.000Z,4047.0
2023-02-05T11:06:37.000Z,4089.0
2023-02-05T11:07:38.000Z,4265.0
2023-02-05T11:08:38.000Z,4138.0
2023-02-05T11:09:37.000Z,4197.0
2023-02-05T11:10:38.000Z,4467.0
2023-02-05T11:11:38.000Z,4439.0
2023-02-05T11:12:37.000Z,4176.0
2023-02-05T11:13:38.000Z,4173.0
2023-02-05T11:14:38.000Z,4239.0
2023-02-05T11:15:38.000Z,3907.0
2023-02-05T11:16:38.000Z,3756.0
2023-02-05T11:17:37.000Z,3563.0
2023-02-05T11:18:38.000Z,3593.0
2023-02-05T11:19:38.000Z,3791.0
2023-02-05T11:20:37.000Z,3922.0
2023-02-05T11:21:38.000Z,4031.0
2023-02-05T11:22:37.000Z,3996.0
2023-02-05T11:23:38.000Z,4239.0
2023-02-05T11:24:38.000Z,4197.0
2023-02-05T11:25:37.000Z,4203.0
2023-02-05T11:26:38.000Z,4168.0
2023-02-05T11:27:38.000Z,4010.0
2023-02-05T11:28:37.000Z,4138.0
2023-02-05T11:29:38.000Z,4050.0
2023-02-05T11:30:37.000Z,4097.0
2023-02-05T11:31:38.000Z,4060.0
2023-02-05T11:32:38.000Z,4361.0
2023-02-05T11:33:37.000Z,4145.0
2023-02-05T11:34:38.000Z,4007.0
2023-02-05T11:35:37.000Z,4069.0
2023-02-05T11:36:38.000Z,4191.0
2023-02-05T11:37:38.000Z,3778.0
2023-02-05T11:38:37.000Z,4005.0
2023-02-05T11:39:38.000Z,4140.0
2023-02-05T11:40:38.000Z,4110.0
2023-02-05T11:41:37.000Z,3955.0
2023-02-05T11:42:38.000Z,4167.0
2023-02-05T11:43:37.000Z,4293.0
2023-02-05T11:44:38.000Z,4423.0
2023-02-05T11:45:38.000Z,4394.0
2023-02-05T11:46:37.000Z,4250.0
2023-02-05T11:47:38.000Z,4165.0
2023-02-05T11:48:37.000Z,4255.0
2023-02-05T11:49:38.000Z,3964.0
2023-02-05T11:50:38.000Z,3878.0
2023-02-05T11:51:37.000Z,3996.0
2023-02-05T11:52:38.000Z,4133.0
2023-02-05T11:53:38.000Z,4157.0
2023-02-05T11:54:37.000Z,4136.0
2023-02-05T11:55:38.000Z,4088.0
2023-02-05T11:56:37.000Z,4066.0
2023-02-05T11:57:38.000Z,4172.0
2023-02-05T11:58:38.000Z,4170.0
2023-02-05T11:59:37.000Z,4245.0
2023-02-05T12:00:38.000Z,4175.0
2023-02-05T12:01:37.000Z,3986.0
2023-02-05T12:02:38.000Z,3918.0
2023-02-05T12:03:38.000Z,3723.0
2023-02-05T12:04:37.000Z,3577.0
2023-02-05T12:05:38.000Z,3691.0
2023-02-05T12:06:38.000Z,3663.0
2023-02-05T12:07:37.000Z,3924.0
2023-02-05T12:08:38.000Z,3738.0
2023-02-05T12:09:37.000Z,3608.0
2023-02-05T12:10:37.000Z,3564.0
2023-02-05T12:11:38.000Z,3635.0
2023-02-05T12:12:37.000Z,3690.0
2023-02-05T12:13:38.000Z,3752.0
2023-02-05T12:14:38.000Z,3694.0
2023-02-05T12:15:37.000Z,3842.0
2023-02-05T12:16:38.000Z,4498.0
2023-02-05T12:17:38.000Z,5092.0
2023-02-05T12:18:37.000Z,5204.0
2023-02-05T12:19:38.000Z,5546.0
2023-02-05T12:20:37.000Z,5536.0
2023-02-05T12:21:38.000Z,5723.0
2023-02-05T12:22:38.000Z,5707.0
2023-02-05T12:23:37.000Z,5390.0
2023-02-05T12:24:38.000Z,5369.0
2023-02-05T12:25:37.000Z,5371.0
2023-02-05T12:26:38.000Z,5004.0
2023-02-05T12:27:38.000Z,4900.0